createdAt,value
2019-02-24T00:01:00.939Z,14.57
2019-02-24T00:03:29.794Z,14.27
2019-02-24T00:05:58.624Z,13.80
2019-02-24T00:08:27.513Z,14.70
2019-02-24T00:10:56.334Z,14.70
2019-02-24T00:13:25.245Z,14.20
2019-02-24T00:15:54.098Z,14.00
2019-02-24T00:18:22.962Z,13.43
2019-02-24T00:20:51.777Z,15.73
2019-02-24T00:23:20.696Z,14.70
2019-02-24T00:25:49.567Z,14.00
2019-02-24T00:28:18.461Z,13.77
2019-02-24T00:30:47.373Z,14.00
2019-02-24T00:33:16.275Z,15.27
2019-02-24T00:35:45.076Z,14.03
2019-02-24T00:38:13.997Z,15.00
2019-02-24T00:40:42.929Z,15.23
2019-02-24T00:43:11.734Z,15.47
2019-02-24T00:45:40.562Z,14.20
2019-02-24T00:48:09.366Z,14.50
2019-02-24T00:50:38.199Z,14.67
2019-02-24T00:53:07.014Z,14.57
2019-02-24T00:55:35.845Z,15.23
2019-02-24T00:58:04.753Z,13.30
2019-02-24T01:00:33.745Z,15.23
2019-02-24T01:03:02.747Z,15.10
2019-02-24T01:05:31.733Z,14.43
2019-02-24T01:08:00.542Z,15.03
2019-02-24T01:10:29.508Z,16.40
2019-02-24T01:12:58.343Z,14.00
2019-02-24T01:15:27.173Z,13.23
2019-02-24T01:17:56.022Z,14.70
2019-02-24T01:20:24.999Z,15.43
2019-02-24T01:22:53.986Z,14.93
2019-02-24T01:25:22.892Z,13.37
2019-02-24T01:27:51.888Z,14.33
2019-02-24T01:30:20.770Z,15.10
2019-02-24T01:32:49.657Z,14.20
2019-02-24T01:35:18.574Z,14.03
2019-02-24T01:37:47.413Z,15.53
2019-02-24T01:40:16.305Z,14.97
2019-02-24T01:42:45.221Z,14.37
2019-02-24T01:45:14.081Z,13.83
2019-02-24T01:47:42.910Z,13.77
2019-02-24T01:50:11.810Z,16.23
2019-02-24T01:52:40.689Z,15.10
2019-02-24T01:55:09.642Z,14.50
2019-02-24T01:57:38.467Z,14.53
2019-02-24T02:00:08.178Z,15.00
2019-02-24T02:02:37.088Z,14.23
2019-02-24T02:05:06.801Z,12.33
2019-02-24T02:07:35.707Z,15.20
2019-02-24T02:10:04.662Z,14.50
2019-02-24T02:12:33.465Z,16.53
2019-02-24T02:15:02.459Z,14.73
2019-02-24T02:17:31.293Z,14.30
2019-02-24T02:20:00.274Z,14.50
2019-02-24T02:22:29.619Z,14.67
2019-02-24T02:24:58.501Z,16.00
2019-02-24T02:27:27.414Z,13.00
2019-02-24T02:29:56.222Z,15.37
2019-02-24T02:32:25.246Z,14.30
2019-02-24T02:34:54.163Z,15.10
2019-02-24T02:37:23.077Z,14.00
2019-02-24T02:39:51.902Z,14.23
2019-02-24T02:42:20.731Z,15.57
2019-02-24T02:44:49.640Z,14.47
2019-02-24T02:47:18.462Z,14.60
2019-02-24T02:49:47.354Z,15.70
2019-02-24T02:52:16.251Z,14.30
2019-02-24T02:54:45.143Z,16.50
2019-02-24T02:57:13.984Z,13.83
2019-02-24T02:59:42.805Z,15.00
2019-02-24T03:02:11.716Z,15.00
2019-02-24T03:04:40.622Z,15.13
2019-02-24T03:07:33.690Z,14.77
2019-02-24T03:10:02.933Z,14.60
2019-02-24T03:12:32.045Z,15.43
2019-02-24T03:15:00.980Z,15.57
2019-02-24T03:17:30.018Z,14.80
2019-02-24T03:19:58.849Z,14.90
2019-02-24T03:22:27.718Z,15.97
2019-02-24T03:24:56.625Z,14.63
2019-02-24T03:27:25.456Z,16.30
2019-02-24T03:29:54.286Z,13.80
2019-02-24T03:32:23.326Z,15.03
2019-02-24T03:34:52.243Z,14.60
2019-02-24T03:37:21.355Z,15.70
2019-02-24T03:39:50.166Z,13.47
2019-02-24T03:42:18.998Z,15.00
2019-02-24T03:44:47.890Z,15.33
2019-02-24T03:47:16.835Z,14.60
2019-02-24T03:49:45.717Z,15.17
2019-02-24T03:52:14.607Z,14.10
2019-02-24T03:54:43.517Z,15.73
2019-02-24T03:57:12.738Z,15.63
2019-02-24T03:59:41.647Z,15.50
2019-02-24T04:02:10.567Z,15.83
2019-02-24T04:04:39.476Z,16.57
2019-02-24T04:07:08.320Z,15.37
2019-02-24T04:09:37.475Z,15.30
2019-02-24T04:12:06.362Z,16.13
2019-02-24T04:14:35.189Z,15.53
2019-02-24T04:17:04.098Z,15.93
2019-02-24T04:19:32.963Z,15.07
2019-02-24T04:22:01.839Z,14.67
2019-02-24T04:24:30.671Z,15.57
2019-02-24T04:26:59.489Z,14.70
2019-02-24T04:29:28.694Z,16.50
2019-02-24T04:31:57.529Z,15.57
2019-02-24T04:34:26.462Z,14.73
2019-02-24T04:36:55.310Z,15.30
2019-02-24T04:39:24.141Z,14.00
2019-02-24T04:41:53.002Z,15.40
2019-02-24T04:44:21.921Z,13.47
2019-02-24T04:46:50.746Z,15.03
2019-02-24T04:49:19.578Z,15.33
2019-02-24T04:51:48.417Z,14.90
2019-02-24T04:54:17.265Z,15.10
2019-02-24T04:56:46.177Z,14.80
2019-02-24T04:59:15.038Z,13.77
2019-02-24T05:01:43.881Z,15.40
2019-02-24T05:04:12.809Z,15.73
2019-02-24T05:06:41.718Z,15.27
2019-02-24T05:09:10.638Z,14.90
2019-02-24T05:11:39.466Z,14.67
2019-02-24T05:14:08.354Z,15.97
2019-02-24T05:16:37.207Z,15.50
2019-02-24T05:19:06.027Z,16.00
2019-02-24T05:21:34.855Z,15.50
2019-02-24T05:24:03.685Z,14.00
2019-02-24T05:26:32.506Z,15.10
2019-02-24T05:29:01.354Z,14.67
2019-02-24T05:31:30.298Z,14.40
2019-02-24T05:33:59.266Z,14.63
2019-02-24T05:36:28.117Z,14.17
2019-02-24T05:38:56.942Z,15.30
2019-02-24T05:41:25.778Z,14.23
2019-02-24T05:43:54.697Z,14.13
2019-02-24T05:46:23.515Z,14.90
2019-02-24T05:48:52.499Z,16.00
2019-02-24T05:51:21.333Z,14.40
2019-02-24T05:53:50.159Z,14.90
2019-02-24T05:56:18.998Z,14.63
2019-02-24T05:58:47.827Z,15.50
2019-02-24T06:01:16.738Z,14.60
2019-02-24T06:03:45.554Z,14.17
2019-02-24T06:06:14.496Z,15.30
2019-02-24T06:08:43.371Z,14.73
2019-02-24T06:11:12.259Z,14.53
2019-02-24T06:13:41.101Z,15.33
2019-02-24T06:16:10.006Z,14.90
2019-02-24T06:18:38.875Z,16.40
2019-02-24T06:21:07.697Z,15.27
2019-02-24T06:23:36.663Z,14.90
2019-02-24T06:26:05.475Z,16.13
2019-02-24T06:28:34.290Z,16.00
2019-02-24T06:31:03.197Z,14.43
2019-02-24T06:33:32.013Z,17.33
2019-02-24T06:36:01.019Z,14.73
2019-02-24T06:38:29.845Z,13.50
2019-02-24T06:40:59.965Z,15.50
2019-02-24T06:43:29.151Z,15.80
2019-02-24T06:45:57.983Z,14.70
2019-02-24T06:48:27.348Z,13.80
2019-02-24T06:51:05.224Z,13.60
2019-02-24T06:53:34.066Z,14.30
2019-02-24T06:56:02.957Z,15.37
2019-02-24T06:58:32.027Z,16.93
2019-02-24T07:01:00.921Z,15.50
2019-02-24T07:03:29.833Z,16.33
2019-02-24T07:05:58.705Z,15.73
2019-02-24T07:08:27.613Z,16.93
2019-02-24T07:10:56.462Z,13.97
2019-02-24T07:13:25.452Z,15.57
2019-02-24T07:15:54.303Z,13.10
2019-02-24T07:18:23.179Z,13.93
2019-02-24T07:20:52.091Z,15.83
2019-02-24T07:23:21.113Z,16.83
2019-02-24T07:25:49.973Z,15.20
2019-02-24T07:28:18.793Z,15.37
2019-02-24T07:30:47.765Z,16.40
2019-02-24T07:33:16.743Z,14.80
2019-02-24T07:35:45.638Z,16.53
2019-02-24T07:38:14.541Z,16.50
2019-02-24T07:40:43.533Z,14.63
2019-02-24T07:43:12.377Z,14.60
2019-02-24T07:45:41.211Z,15.10
2019-02-24T07:48:10.084Z,16.03
2019-02-24T07:50:39.075Z,15.17
2019-02-24T07:53:07.969Z,16.57
2019-02-24T07:55:37.022Z,15.87
2019-02-24T07:58:06.071Z,16.53
2019-02-24T08:00:34.968Z,16.27
2019-02-24T08:03:03.974Z,17.10
2019-02-24T08:05:32.937Z,16.90
2019-02-24T08:08:02.543Z,17.83
2019-02-24T08:10:31.598Z,16.87
2019-02-24T08:13:00.438Z,16.03
2019-02-24T08:15:29.321Z,15.60
2019-02-24T08:17:58.323Z,18.27
2019-02-24T08:20:27.338Z,16.80
2019-02-24T08:22:56.248Z,16.40
2019-02-24T08:25:25.088Z,17.30
2019-02-24T08:27:55.539Z,16.30
2019-02-24T08:30:24.642Z,16.60
2019-02-24T08:32:53.561Z,17.93
2019-02-24T08:35:22.670Z,18.43
2019-02-24T08:37:51.511Z,17.27
2019-02-24T08:40:20.553Z,18.70
2019-02-24T08:42:49.533Z,17.30
2019-02-24T08:45:18.443Z,19.13
2019-02-24T08:47:47.578Z,19.03
2019-02-24T08:50:16.480Z,18.27
2019-02-24T08:52:46.486Z,19.13
2019-02-24T08:55:16.038Z,18.40
2019-02-24T08:57:45.052Z,18.47
2019-02-24T09:00:14.583Z,19.17
2019-02-24T09:02:43.562Z,19.50
2019-02-24T09:05:12.533Z,19.53
2019-02-24T09:07:41.377Z,20.80
2019-02-24T09:10:10.376Z,19.60
2019-02-24T09:12:39.210Z,19.80
2019-02-24T09:15:08.954Z,18.60
2019-02-24T09:17:37.842Z,20.40
2019-02-24T09:20:07.648Z,19.93
2019-02-24T09:22:36.746Z,19.60
2019-02-24T09:25:05.946Z,19.13
2019-02-24T09:27:34.854Z,18.70
2019-02-24T09:30:04.033Z,18.00
2019-02-24T09:32:33.005Z,19.53
2019-02-24T09:35:01.901Z,19.50
2019-02-24T09:37:30.766Z,20.60
2019-02-24T09:39:59.709Z,20.43
2019-02-24T09:42:28.542Z,21.43
2019-02-24T09:44:57.351Z,20.70
2019-02-24T09:47:26.266Z,19.90
2019-02-24T09:49:55.073Z,19.10
2019-02-24T09:52:23.921Z,18.63
2019-02-24T09:54:52.821Z,17.03
2019-02-24T09:57:21.841Z,19.80
2019-02-24T09:59:50.722Z,19.43
2019-02-24T10:02:19.556Z,18.20
2019-02-24T10:04:48.476Z,17.90
2019-02-24T10:07:17.362Z,19.93
2019-02-24T10:09:46.210Z,19.23
2019-02-24T10:12:15.096Z,19.23
2019-02-24T10:14:44.106Z,18.10
2019-02-24T10:17:13.250Z,19.60
2019-02-24T10:19:42.127Z,17.80
2019-02-24T10:22:11.132Z,19.20
2019-02-24T10:24:40.013Z,18.87
2019-02-24T10:27:08.942Z,18.63
2019-02-24T10:29:37.763Z,19.20
2019-02-24T10:32:06.667Z,18.50
2019-02-24T10:34:35.594Z,17.17
2019-02-24T10:37:04.692Z,18.70
2019-02-24T10:39:33.638Z,18.00
2019-02-24T10:42:02.492Z,18.43
2019-02-24T10:44:31.533Z,18.73
2019-02-24T10:47:02.252Z,17.90
2019-02-24T10:49:31.069Z,18.47
2019-02-24T10:52:06.204Z,18.30
2019-02-24T10:54:35.043Z,17.50
2019-02-24T10:57:03.953Z,17.73
2019-02-24T10:59:33.073Z,17.97
2019-02-24T11:02:02.058Z,17.93
2019-02-24T11:04:30.904Z,17.23
2019-02-24T11:06:59.742Z,16.27
2019-02-24T11:09:28.578Z,17.60
2019-02-24T11:11:57.571Z,18.40
2019-02-24T11:14:26.410Z,17.60
2019-02-24T11:16:55.498Z,17.77
2019-02-24T11:19:24.481Z,17.77
2019-02-24T11:21:53.479Z,17.47
2019-02-24T11:24:22.715Z,17.53
2019-02-24T11:26:51.723Z,17.63
2019-02-24T11:29:20.720Z,17.00
2019-02-24T11:31:49.625Z,17.30
2019-02-24T11:34:18.534Z,16.93
2019-02-24T11:36:47.354Z,16.27
2019-02-24T11:39:16.274Z,18.03
2019-02-24T11:41:45.184Z,16.20
2019-02-24T11:44:14.102Z,16.70
2019-02-24T11:46:43.117Z,16.67
2019-02-24T11:49:11.970Z,16.93
2019-02-24T11:51:40.817Z,17.63
2019-02-24T11:54:09.653Z,17.40
2019-02-24T11:56:38.490Z,16.97
2019-02-24T11:59:07.293Z,16.37
2019-02-24T12:01:36.217Z,16.90
2019-02-24T12:04:05.264Z,15.70
2019-02-24T12:06:34.229Z,16.07
2019-02-24T12:09:05.419Z,15.60
2019-02-24T12:11:37.719Z,15.43
2019-02-24T12:14:06.832Z,15.67
2019-02-24T12:16:35.746Z,17.40
2019-02-24T12:19:04.745Z,16.50
2019-02-24T12:21:33.636Z,15.40
2019-02-24T12:24:17.561Z,15.77
2019-02-24T12:26:46.706Z,13.87
2019-02-24T12:29:15.685Z,16.47
2019-02-24T12:31:44.616Z,15.40
2019-02-24T12:34:13.638Z,17.40
2019-02-24T12:36:42.606Z,16.60
2019-02-24T12:39:11.441Z,15.43
2019-02-24T12:41:40.488Z,15.00
2019-02-24T12:44:09.309Z,15.00
2019-02-24T12:46:38.191Z,13.40
2019-02-24T12:49:07.024Z,16.13
2019-02-24T12:51:35.942Z,15.80
2019-02-24T12:54:04.978Z,14.70
2019-02-24T12:56:33.965Z,14.53
2019-02-24T12:59:03.020Z,13.93
2019-02-24T13:01:32.039Z,13.80
2019-02-24T13:04:00.946Z,16.60
2019-02-24T13:06:29.823Z,14.90
2019-02-24T13:08:58.657Z,14.27
2019-02-24T13:11:27.667Z,15.60
2019-02-24T13:13:56.498Z,14.70
2019-02-24T13:16:25.418Z,13.43
2019-02-24T13:18:54.353Z,15.23
2019-02-24T13:21:23.343Z,14.67
2019-02-24T13:23:52.247Z,13.87
2019-02-24T13:26:21.098Z,13.20
2019-02-24T13:29:09.306Z,13.50
2019-02-24T13:31:38.301Z,15.63
2019-02-24T13:34:07.129Z,14.97
2019-02-24T13:36:35.991Z,13.50
2019-02-24T13:39:05.815Z,14.67
2019-02-24T13:41:34.778Z,13.53
2019-02-24T13:44:03.947Z,14.53
2019-02-24T13:46:32.859Z,15.30
2019-02-24T13:49:01.708Z,14.13
2019-02-24T13:51:30.582Z,15.23
2019-02-24T13:53:59.435Z,14.33
2019-02-24T13:56:28.458Z,14.20
2019-02-24T13:58:57.331Z,14.60
2019-02-24T14:01:26.146Z,14.73
2019-02-24T14:03:55.059Z,13.73
2019-02-24T14:06:23.939Z,13.67
2019-02-24T14:08:52.966Z,15.67
2019-02-24T14:11:21.860Z,15.37
2019-02-24T14:13:50.715Z,14.00
2019-02-24T14:16:19.566Z,14.93
2019-02-24T14:18:49.976Z,14.93
2019-02-24T14:21:19.273Z,12.60
2019-02-24T14:23:48.102Z,14.80
2019-02-24T14:26:17.010Z,13.77
2019-02-24T14:28:45.904Z,14.30
2019-02-24T14:31:14.982Z,13.17
2019-02-24T14:33:43.899Z,14.17
2019-02-24T14:36:12.914Z,15.43
2019-02-24T14:38:41.757Z,14.90
2019-02-24T14:41:10.762Z,14.73
2019-02-24T14:43:39.706Z,13.87
2019-02-24T14:46:11.721Z,13.70
2019-02-24T14:48:41.980Z,16.40
2019-02-24T14:51:10.888Z,15.03
2019-02-24T14:53:39.822Z,13.67
2019-02-24T14:56:08.710Z,14.90
2019-02-24T14:58:37.558Z,16.10
2019-02-24T15:01:06.711Z,14.93
2019-02-24T15:03:36.102Z,15.57
2019-02-24T15:06:05.093Z,14.23
2019-02-24T15:08:34.114Z,13.43
2019-02-24T15:11:03.120Z,14.67
2019-02-24T15:13:32.101Z,14.67
2019-02-24T15:16:01.137Z,13.03
2019-02-24T15:18:30.086Z,13.63
2019-02-24T15:20:59.092Z,14.93
2019-02-24T15:23:27.897Z,14.63
2019-02-24T15:25:56.776Z,13.10
2019-02-24T15:28:25.619Z,13.40
2019-02-24T15:30:54.462Z,13.10
2019-02-24T15:33:23.518Z,13.90
2019-02-24T15:35:52.337Z,13.73
2019-02-24T15:38:21.279Z,12.43
2019-02-24T15:40:50.296Z,13.73
2019-02-24T15:43:19.232Z,13.90
2019-02-24T15:45:48.129Z,13.00
2019-02-24T15:48:17.100Z,11.83
2019-02-24T15:50:45.931Z,12.17
2019-02-24T15:53:15.791Z,11.90
2019-02-24T15:55:44.702Z,12.97
2019-02-24T15:58:13.681Z,13.80
2019-02-24T16:00:42.519Z,13.80
2019-02-24T16:03:11.424Z,13.20
2019-02-24T16:05:40.290Z,12.13
2019-02-24T16:08:09.209Z,14.27
2019-02-24T16:10:38.063Z,13.57
2019-02-24T16:13:06.912Z,12.37
2019-02-24T16:15:36.006Z,14.37
2019-02-24T16:18:05.098Z,12.30
2019-02-24T16:20:34.090Z,14.70
2019-02-24T16:23:03.106Z,13.43
2019-02-24T16:25:32.162Z,12.90
2019-02-24T16:28:00.999Z,12.87
2019-02-24T16:30:30.159Z,13.40
2019-02-24T16:32:59.034Z,13.20
2019-02-24T16:35:27.970Z,14.10
2019-02-24T16:37:56.814Z,13.60
2019-02-24T16:40:25.773Z,13.47
2019-02-24T16:42:54.765Z,13.23
2019-02-24T16:45:23.741Z,14.30
2019-02-24T16:47:52.758Z,13.77
2019-02-24T16:50:22.750Z,14.00
2019-02-24T16:52:51.740Z,14.00
2019-02-24T16:55:21.071Z,12.87
2019-02-24T16:57:49.958Z,13.43
2019-02-24T17:00:19.555Z,14.07
2019-02-24T17:02:48.823Z,13.50
2019-02-24T17:05:17.835Z,14.70
2019-02-24T17:07:49.117Z,13.90
2019-02-24T17:10:18.789Z,15.20
2019-02-24T17:12:47.845Z,14.60
2019-02-24T17:15:16.841Z,12.27
2019-02-24T17:17:45.733Z,13.37
2019-02-24T17:20:15.902Z,13.80
2019-02-24T17:22:44.885Z,14.43
2019-02-24T17:25:13.879Z,13.77
2019-02-24T17:27:42.736Z,13.73
2019-02-24T17:30:12.868Z,12.97
2019-02-24T17:32:41.850Z,14.23
2019-02-24T17:35:10.893Z,13.17
2019-02-24T17:37:39.944Z,13.63
2019-02-24T17:40:10.495Z,14.83
2019-02-24T17:42:39.336Z,14.00
2019-02-24T17:45:10.097Z,15.10
2019-02-24T17:47:39.129Z,13.80
2019-02-24T17:50:09.561Z,14.00
2019-02-24T17:52:38.482Z,14.33
2019-02-24T17:55:08.813Z,15.40
2019-02-24T17:57:37.740Z,14.50
2019-02-24T18:00:10.889Z,15.57
2019-02-24T18:02:39.889Z,14.73
2019-02-24T18:05:08.873Z,14.90
2019-02-24T18:07:37.710Z,15.30
2019-02-24T18:10:06.669Z,14.23
2019-02-24T18:12:35.563Z,14.27
2019-02-24T18:15:04.676Z,15.00
2019-02-24T18:17:33.620Z,16.27
2019-02-24T18:20:02.625Z,15.00
2019-02-24T18:22:31.566Z,15.73
2019-02-24T18:25:03.252Z,15.23
2019-02-24T18:27:31.153Z,15.97
2019-02-24T18:29:59.979Z,16.20
2019-02-24T18:32:29.012Z,16.80
2019-02-24T18:34:57.980Z,17.00
2019-02-24T18:37:26.913Z,15.47
2019-02-24T18:39:55.741Z,16.50
2019-02-24T18:42:24.575Z,15.57
2019-02-24T18:44:53.529Z,16.23
2019-02-24T18:47:22.753Z,17.80
2019-02-24T18:49:51.801Z,16.17
2019-02-24T18:52:20.697Z,16.57
2019-02-24T18:54:49.513Z,15.37
2019-02-24T18:57:18.508Z,16.43
2019-02-24T18:59:47.355Z,16.73
2019-02-24T19:02:16.265Z,15.70
2019-02-24T19:04:45.174Z,16.77
2019-02-24T19:07:17.194Z,17.17
2019-02-24T19:09:46.114Z,17.10
2019-02-24T19:12:15.053Z,16.70
2019-02-24T19:14:43.965Z,16.90
2019-02-24T19:17:12.789Z,16.60
2019-02-24T19:19:41.714Z,16.43
2019-02-24T19:22:10.543Z,17.10
2019-02-24T19:24:39.405Z,16.60
2019-02-24T19:27:08.395Z,16.33
2019-02-24T19:29:37.298Z,17.07
2019-02-24T19:32:06.304Z,16.47
2019-02-24T19:34:35.128Z,17.83
2019-02-24T19:37:04.138Z,17.40
2019-02-24T19:39:32.978Z,15.83
2019-02-24T19:42:01.793Z,18.50
2019-02-24T19:44:30.922Z,17.50
2019-02-24T19:47:01.609Z,18.90
2019-02-24T19:49:30.522Z,18.43
2019-02-24T19:51:59.387Z,16.77
2019-02-24T19:54:28.294Z,18.40
2019-02-24T19:56:57.263Z,18.50
2019-02-24T19:59:26.117Z,19.80
2019-02-24T20:01:55.026Z,18.70
2019-02-24T20:04:23.970Z,19.27
2019-02-24T20:06:52.846Z,19.80
2019-02-24T20:09:21.872Z,19.27
2019-02-24T20:11:50.706Z,18.77
2019-02-24T20:14:19.597Z,18.37
2019-02-24T20:16:48.445Z,20.40
2019-02-24T20:19:17.357Z,19.63
2019-02-24T20:21:46.398Z,19.80
2019-02-24T20:24:15.249Z,19.53
2019-02-24T20:26:44.269Z,19.03
2019-02-24T20:29:13.126Z,20.80
2019-02-24T20:31:42.033Z,19.57
2019-02-24T20:34:10.890Z,19.10
2019-02-24T20:36:39.773Z,21.10
2019-02-24T20:39:08.871Z,19.63
2019-02-24T20:41:37.786Z,19.53
2019-02-24T20:44:06.701Z,18.87
2019-02-24T20:46:35.667Z,18.60
2019-02-24T20:49:04.728Z,18.37
2019-02-24T20:51:33.653Z,19.33
2019-02-24T20:54:02.597Z,18.10
2019-02-24T20:56:31.665Z,18.90
2019-02-24T20:59:00.599Z,17.83
2019-02-24T21:01:29.474Z,18.10
2019-02-24T21:03:58.342Z,18.23
2019-02-24T21:06:27.298Z,18.57
2019-02-24T21:08:56.162Z,17.57
2019-02-24T21:11:25.061Z,18.07
2019-02-24T21:13:53.972Z,18.80
2019-02-24T21:16:22.977Z,19.93
2019-02-24T21:18:51.906Z,19.93
2019-02-24T21:21:20.897Z,18.37
2019-02-24T21:23:49.773Z,18.87
2019-02-24T21:26:18.692Z,19.40
2019-02-24T21:28:48.921Z,19.20
2019-02-24T21:31:17.986Z,21.27
2019-02-24T21:33:46.871Z,18.33
2019-02-24T21:36:15.861Z,19.30
2019-02-24T21:38:44.685Z,19.03
2019-02-24T21:41:13.581Z,19.90
2019-02-24T21:43:42.422Z,19.00
2019-02-24T21:46:11.250Z,17.20
2019-02-24T21:48:40.190Z,18.47
2019-02-24T21:51:09.198Z,18.93
2019-02-24T21:53:38.114Z,18.90
2019-02-24T21:56:07.086Z,18.17
2019-02-24T21:58:35.925Z,19.77
2019-02-24T22:01:06.514Z,19.90
2019-02-24T22:03:35.371Z,17.47
2019-02-24T22:06:04.259Z,18.57
2019-02-24T22:08:33.213Z,18.97
2019-02-24T22:11:02.257Z,17.70
2019-02-24T22:13:31.081Z,17.33
2019-02-24T22:15:59.929Z,18.37
2019-02-24T22:18:28.762Z,16.70
2019-02-24T22:20:57.739Z,17.50
2019-02-24T22:23:26.589Z,18.00
2019-02-24T22:25:55.389Z,18.00
2019-02-24T22:28:24.217Z,18.93
2019-02-24T22:30:53.180Z,17.60
2019-02-24T22:33:22.042Z,17.17
2019-02-24T22:35:51.029Z,18.40
2019-02-24T22:38:19.997Z,18.87
2019-02-24T22:40:54.329Z,19.07
2019-02-24T22:43:19.486Z,17.57
2019-02-24T22:45:48.345Z,17.33
2019-02-24T22:48:17.572Z,17.87
2019-02-24T22:50:47.059Z,18.00
2019-02-24T22:53:15.995Z,17.00
2019-02-24T22:55:44.822Z,17.40
2019-02-24T22:58:13.753Z,16.80
2019-02-24T23:01:02.500Z,17.33
2019-02-24T23:03:42.878Z,16.87
2019-02-24T23:06:11.855Z,16.47
2019-02-24T23:08:40.682Z,16.60
2019-02-24T23:11:09.584Z,16.17
2019-02-24T23:13:39.374Z,18.03
2019-02-24T23:16:08.618Z,18.70
2019-02-24T23:18:37.594Z,17.40
2019-02-24T23:21:06.553Z,17.43
2019-02-24T23:23:35.552Z,17.50
2019-02-24T23:26:04.513Z,17.63
2019-02-24T23:28:33.344Z,17.63
2019-02-24T23:31:02.257Z,18.40
2019-02-24T23:33:31.168Z,16.20
2019-02-24T23:36:00.361Z,16.97
2019-02-24T23:38:29.230Z,17.97
2019-02-24T23:40:58.199Z,15.80
2019-02-24T23:43:27.028Z,17.53
2019-02-24T23:45:56.025Z,16.77
2019-02-24T23:48:24.846Z,17.47
2019-02-24T23:50:53.760Z,17.27
2019-02-24T23:53:22.601Z,17.57
2019-02-24T23:55:51.516Z,17.40
2019-02-24T23:58:20.480Z,17.00
